Time;durP1;ratioP1;P1;durP2;ratioP2;P2;SDS_P1;SDS_P2;PMS_P1;PMS_P2;Temp;Humidity;BMP_temperature;BMP_pressure;BME280_temperature;BME280_humidity;BME280_pressure;Samples;Min_cycle;Max_cycle;Signal;HPM_P1;HPM_P2
2021/08/26 00:07:23;;;;;;;11.50;6.07;;;11.60;99.90;;;;;;20956311;28;20441;-78
2021/08/26 00:17:24;;;;;;;11.85;6.85;;;11.60;99.90;;;;;;20893460;28;20037;-78
2021/08/26 00:27:25;;;;;;;14.60;6.37;;;11.40;99.90;;;;;;20913687;28;20074;-78
2021/08/26 00:37:26;;;;;;;12.50;6.83;;;11.40;99.90;;;;;;20901519;28;20029;-79
2021/08/26 00:47:27;;;;;;;10.27;6.87;;;11.20;99.90;;;;;;20932966;28;20119;-76
2021/08/26 00:57:27;;;;;;;9.23;6.53;;;11.20;99.90;;;;;;20944680;28;20490;-79
2021/08/26 01:07:39;;;;;;;11.50;7.50;;;11.20;99.90;;;;;;20927885;28;20502;-79
2021/08/26 01:17:43;;;;;;;;;;;11.20;99.90;;;;;;20926231;28;20395;-78
2021/08/26 01:27:56;;;;;;;10.57;6.53;;;11.20;99.90;;;;;;20928882;28;19944;-78
2021/08/26 01:37:58;;;;;;;14.00;7.78;;;11.10;99.90;;;;;;20927708;28;20040;-79
2021/08/26 01:47:58;;;;;;;9.52;6.95;;;11.20;99.90;;;;;;20935673;28;20399;-78
2021/08/26 01:58:00;;;;;;;8.30;6.00;;;11.30;99.90;;;;;;20925818;28;20025;-77
2021/08/26 02:08:00;;;;;;;10.07;6.27;;;11.30;99.90;;;;;;20926467;28;20033;-78
2021/08/26 02:18:01;;;;;;;7.87;6.30;;;11.20;99.90;;;;;;20925042;28;20036;-78
2021/08/26 02:28:02;;;;;;;13.50;6.60;;;11.10;99.90;;;;;;20909694;28;20036;-78
2021/08/26 02:38:03;;;;;;;8.53;6.23;;;11.00;99.90;;;;;;20921139;28;20436;-77
2021/08/26 02:48:04;;;;;;;8.60;6.10;;;10.80;99.90;;;;;;20923285;28;20036;-79
2021/08/26 02:58:05;;;;;;;10.53;6.27;;;10.80;99.90;;;;;;20932140;28;20043;-78
2021/08/26 03:08:06;;;;;;;10.83;6.90;;;10.80;99.90;;;;;;20931577;28;20368;-77
2021/08/26 03:18:07;;;;;;;13.37;7.53;;;10.70;99.90;;;;;;20928726;28;20136;-77
2021/08/26 03:28:08;;;;;;;8.73;6.37;;;10.60;99.90;;;;;;20920904;28;20037;-78
2021/08/26 03:38:09;;;;;;;11.10;7.13;;;10.60;99.90;;;;;;20922911;28;20040;-78
2021/08/26 03:48:09;;;;;;;9.47;7.10;;;10.40;99.90;;;;;;20924517;28;20510;-77
2021/08/26 03:58:10;;;;;;;13.60;7.07;;;10.40;99.90;;;;;;20931051;28;20475;-80
2021/08/26 04:08:11;;;;;;;11.93;6.30;;;10.40;99.90;;;;;;20931853;28;20044;-74
2021/08/26 04:18:12;;;;;;;8.30;5.97;;;10.30;99.90;;;;;;20936448;28;20028;-78
2021/08/26 04:28:12;;;;;;;7.97;5.80;;;10.20;99.90;;;;;;20933226;28;20029;-78
2021/08/26 04:38:13;;;;;;;10.10;7.03;;;10.10;99.90;;;;;;20929524;28;20403;-76
2021/08/26 04:48:14;;;;;;;103.77;10.97;;;9.80;99.90;;;;;;20817457;22;20076;-80
2021/08/26 04:58:15;;;;;;;14.47;9.43;;;9.70;99.90;;;;;;20865269;28;20057;-80
2021/08/26 05:08:16;;;;;;;12.23;8.33;;;9.70;99.90;;;;;;20850966;28;20040;-80
2021/08/26 05:18:16;;;;;;;12.37;7.33;;;9.90;99.90;;;;;;20842870;28;20399;-79
2021/08/26 05:28:17;;;;;;;11.70;6.67;;;10.00;99.90;;;;;;20854402;28;20029;-80
2021/08/26 05:38:18;;;;;;;10.90;6.87;;;10.40;99.90;;;;;;20847104;28;20025;-79
2021/08/26 05:48:19;;;;;;;9.27;7.07;;;10.70;99.90;;;;;;20846665;28;20064;-78
2021/08/26 05:58:19;;;;;;;8.70;6.80;;;10.90;99.90;;;;;;20847239;28;20061;-80
2021/08/26 06:08:26;;;;;;;9.77;6.03;;;11.30;99.90;;;;;;20822749;28;20168;-81
2021/08/26 06:18:27;;;;;;;12.38;6.30;;;12.10;99.90;;;;;;20833394;28;20038;-80
2021/08/26 06:28:28;;;;;;;12.63;8.37;;;12.60;99.90;;;;;;20810348;28;20603;-79
2021/08/26 06:38:29;;;;;;;11.47;7.73;;;12.50;99.90;;;;;;20826889;28;20033;-79
2021/08/26 06:48:30;;;;;;;9.43;6.87;;;13.10;99.90;;;;;;20827068;28;20034;-79
2021/08/26 06:58:30;;;;;;;9.87;6.83;;;13.70;99.90;;;;;;20832207;28;20457;-80
2021/08/26 07:08:31;;;;;;;7.60;6.13;;;14.10;99.90;;;;;;20827750;28;20029;-79
2021/08/26 07:18:32;;;;;;;9.73;6.60;;;15.20;99.90;;;;;;20827632;28;20029;-79
2021/08/26 07:28:33;;;;;;;12.77;7.63;;;14.90;99.90;;;;;;20811015;28;20064;-79
2021/08/26 07:38:34;;;;;;;10.63;7.57;;;15.70;99.90;;;;;;20840910;28;20040;-78
2021/08/26 07:48:35;;;;;;;11.47;6.53;;;15.90;99.90;;;;;;20842261;28;20034;-79
2021/08/26 07:58:37;;;;;;;12.57;6.80;;;16.40;99.90;;;;;;20840813;28;20025;-79
2021/08/26 08:08:38;;;;;;;12.10;7.47;;;17.20;99.90;;;;;;20839170;28;20067;-79
2021/08/26 08:18:39;;;;;;;12.80;7.00;;;17.50;99.90;;;;;;20820929;28;20128;-79
2021/08/26 08:28:40;;;;;;;13.67;9.30;;;17.70;99.90;;;;;;20841990;28;20101;-79
2021/08/26 08:38:41;;;;;;;13.63;7.97;;;18.10;99.90;;;;;;20842392;28;20405;-78
2021/08/26 08:48:43;;;;;;;12.20;6.77;;;18.90;99.90;;;;;;20834125;28;20033;-79
2021/08/26 08:58:44;;;;;;;13.30;6.15;;;19.40;99.90;;;;;;20865406;28;20053;-79
2021/08/26 09:09:01;;;;;;;12.13;5.97;;;20.30;99.90;;;;;;20844918;28;20033;-78
2021/08/26 09:19:17;;;;;;;10.40;5.38;;;20.00;99.90;;;;;;20842982;28;20037;-79
2021/08/26 09:29:19;;;;;;;9.98;4.57;;;20.00;99.90;;;;;;20841654;28;20072;-78
2021/08/26 09:39:22;;;;;;;10.25;4.50;;;21.40;99.90;;;;;;20868243;28;20029;-80
2021/08/26 09:49:25;;;;;;;8.85;4.70;;;21.70;99.90;;;;;;20884971;28;20061;-80
2021/08/26 09:59:45;;;;;;;7.25;3.95;;;22.10;99.90;;;;;;20922359;28;20051;-81
2021/08/26 10:09:46;;;;;;;7.28;4.47;;;22.30;99.90;;;;;;20923166;28;20036;-82
2021/08/26 10:19:48;;;;;;;;;;;23.10;99.90;;;;;;20906380;28;20045;-79
2021/08/26 10:29:50;;;;;;;10.55;5.00;;;21.90;99.90;;;;;;20839155;28;19923;-81
2021/08/26 10:39:51;;;;;;;7.82;4.28;;;22.70;99.90;;;;;;20912413;28;20047;-82
2021/08/26 10:50:20;;;;;;;13.75;5.25;;;23.70;99.90;;;;;;20918264;22;20061;-77
2021/08/26 11:00:41;;;;;;;6.78;3.97;;;22.90;99.90;;;;;;20872801;28;20040;-77
2021/08/26 11:10:42;;;;;;;9.33;4.10;;;23.00;99.90;;;;;;20889642;28;20032;-78
2021/08/26 11:20:43;;;;;;;10.90;5.10;;;23.00;99.90;;;;;;20889584;28;20033;-77
2021/08/26 11:30:44;;;;;;;9.00;4.75;;;22.10;99.90;;;;;;20887858;28;20033;-77
2021/08/26 11:40:45;;;;;;;11.87;4.27;;;22.40;99.90;;;;;;20928727;28;20506;-77
2021/08/26 11:50:46;;;;;;;7.15;4.75;;;22.50;99.90;;;;;;20952346;28;20086;-79
2021/08/26 12:00:49;;;;;;;6.53;4.03;;;22.30;99.90;;;;;;20895438;28;20033;-77
2021/08/26 12:10:51;;;;;;;6.82;3.97;;;23.40;99.90;;;;;;20887162;28;20056;-78
2021/08/26 12:21:03;;;;;;;9.93;4.68;;;24.10;99.90;;;;;;20893299;28;20033;-78
2021/08/26 12:31:09;;;;;;;9.40;4.35;;;22.70;99.90;;;;;;20898625;28;20037;-78
2021/08/26 12:41:17;;;;;;;7.45;4.15;;;22.90;99.90;;;;;;20898397;28;20123;-78
2021/08/26 12:51:26;;;;;;;10.15;4.30;;;22.50;99.90;;;;;;20885957;28;20202;-78
2021/08/26 13:01:26;;;;;;;11.60;4.30;;;22.00;99.90;;;;;;20903820;28;20037;-79
2021/08/26 13:11:27;;;;;;;6.43;4.27;;;22.40;99.90;;;;;;20919889;28;20053;-79
2021/08/26 13:21:28;;;;;;;7.60;4.57;;;22.50;99.90;;;;;;20898116;28;20033;-79
2021/08/26 13:31:29;;;;;;;9.13;4.50;;;22.60;99.90;;;;;;20907689;28;20041;-78
2021/08/26 13:41:30;;;;;;;9.30;5.27;;;22.40;99.90;;;;;;20964466;28;20295;-77
2021/08/26 13:51:31;;;;;;;10.97;4.63;;;21.40;99.90;;;;;;20979228;28;20041;-78
2021/08/26 14:01:32;;;;;;;12.03;4.87;;;20.70;99.90;;;;;;20978991;28;20089;-78
2021/08/26 14:11:33;;;;;;;8.93;4.23;;;20.70;99.90;;;;;;20957458;28;20036;-78
2021/08/26 14:21:34;;;;;;;12.73;4.83;;;20.40;99.90;;;;;;20974357;28;20115;-79
2021/08/26 14:31:36;;;;;;;9.95;4.55;;;20.30;99.90;;;;;;20974295;28;20143;-79
2021/08/26 14:41:37;;;;;;;9.70;5.47;;;20.10;99.90;;;;;;20888597;28;20116;-78
2021/08/26 14:51:39;;;;;;;9.50;6.10;;;19.50;99.90;;;;;;20899151;28;20032;-77
2021/08/26 15:01:40;;;;;;;11.35;6.28;;;19.00;99.90;;;;;;20889732;28;20039;-77
2021/08/26 15:11:41;;;;;;;11.48;5.57;;;18.20;99.90;;;;;;20887461;28;20839;-77
2021/08/26 15:21:42;;;;;;;5.13;3.10;;;17.90;99.90;;;;;;20886243;28;20068;-77
2021/08/26 15:31:43;;;;;;;3.77;2.57;;;17.50;99.90;;;;;;20869677;28;20111;-77
2021/08/26 15:41:45;;;;;;;3.83;1.83;;;17.50;99.90;;;;;;20951413;28;20037;-77
2021/08/26 15:51:58;;;;;;;7.10;5.05;;;17.20;99.90;;;;;;20970501;28;20834;-78
2021/08/26 16:02:01;;;;;;;4.10;2.30;;;17.00;99.90;;;;;;20984459;28;20115;-78
2021/08/26 16:12:03;;;;;;;4.78;2.60;;;16.90;99.90;;;;;;20984328;28;20036;-78
2021/08/26 16:22:05;;;;;;;5.40;2.78;;;16.20;99.90;;;;;;20982612;28;20032;-78
2021/08/26 16:32:06;;;;;;;5.80;2.80;;;15.60;99.90;;;;;;20965167;28;20582;-76
2021/08/26 16:42:07;;;;;;;3.97;2.70;;;15.50;99.90;;;;;;20934170;22;20052;-80
2021/08/26 16:52:09;;;;;;;4.47;3.03;;;15.50;99.90;;;;;;21013115;28;20726;-81
2021/08/26 17:02:09;;;;;;;5.90;2.40;;;15.40;99.90;;;;;;21004627;28;20040;-80
2021/08/26 17:12:10;;;;;;;3.00;1.97;;;15.40;99.90;;;;;;20999281;28;20036;-80
2021/08/26 17:22:11;;;;;;;3.10;1.83;;;15.70;99.90;;;;;;21001424;28;20141;-80
2021/08/26 17:32:12;;;;;;;2.53;1.80;;;15.80;99.90;;;;;;20998602;28;20029;-79
2021/08/26 17:42:12;;;;;;;2.30;1.87;;;15.90;99.90;;;;;;21008687;28;20031;-79
2021/08/26 17:52:14;;;;;;;2.73;2.03;;;15.80;99.90;;;;;;20995570;28;20036;-80
2021/08/26 18:02:15;;;;;;;9.50;2.70;;;15.60;99.90;;;;;;20992768;28;20034;-80
2021/08/26 18:12:15;;;;;;;4.73;3.13;;;15.50;99.90;;;;;;20989478;28;20056;-81
2021/08/26 18:22:16;;;;;;;4.80;3.67;;;15.10;99.90;;;;;;20985924;28;20089;-81
2021/08/26 18:32:17;;;;;;;4.37;3.27;;;14.80;99.90;;;;;;20980719;28;20032;-79
2021/08/26 18:42:18;;;;;;;8.80;4.30;;;14.60;99.90;;;;;;20977902;28;20116;-80
2021/08/26 18:52:19;;;;;;;6.07;4.70;;;14.50;99.90;;;;;;20959494;28;20597;-79
2021/08/26 19:02:20;;;;;;;5.40;4.00;;;14.50;99.90;;;;;;20978256;28;20085;-78
2021/08/26 19:12:21;;;;;;;8.37;4.57;;;14.40;99.90;;;;;;20959374;28;20091;-80
2021/08/26 19:22:22;;;;;;;6.13;4.13;;;14.20;99.90;;;;;;20976024;28;20032;-79
2021/08/26 19:32:23;;;;;;;6.87;4.83;;;13.90;99.90;;;;;;20969801;28;20032;-80
2021/08/26 19:42:23;;;;;;;9.07;5.97;;;14.20;99.90;;;;;;20992210;28;20124;-79
2021/08/26 19:52:24;;;;;;;11.47;8.40;;;14.30;99.90;;;;;;20985176;28;20130;-79
2021/08/26 20:02:25;;;;;;;10.10;7.73;;;14.50;99.90;;;;;;20985017;28;20116;-79
2021/08/26 20:12:26;;;;;;;7.90;6.23;;;14.60;99.90;;;;;;20981777;28;20064;-81
2021/08/26 20:22:27;;;;;;;11.13;6.90;;;14.30;99.90;;;;;;20982724;28;20090;-81
2021/08/26 20:32:27;;;;;;;6.33;5.07;;;14.40;99.90;;;;;;20982143;28;20056;-80
2021/08/26 20:42:28;;;;;;;12.45;6.35;;;14.50;99.90;;;;;;20941918;28;1168545;-79
2021/08/26 20:52:29;;;;;;;8.50;5.50;;;14.30;99.90;;;;;;20987658;28;20039;-80
2021/08/26 21:02:30;;;;;;;7.70;5.20;;;14.40;99.90;;;;;;20987520;28;20052;-81
2021/08/26 21:12:31;;;;;;;6.93;5.10;;;14.50;99.90;;;;;;20985431;28;20040;-82
2021/08/26 21:22:34;;;;;;;6.93;3.97;;;14.50;99.90;;;;;;20985470;28;20494;-81
2021/08/26 21:32:35;;;;;;;6.45;4.72;;;14.40;99.90;;;;;;20986352;28;20102;-80
2021/08/26 21:42:36;;;;;;;12.97;4.20;;;14.30;99.90;;;;;;20986508;28;20064;-81
2021/08/26 21:52:37;;;;;;;6.37;4.03;;;14.30;99.90;;;;;;20985548;28;20040;-79
2021/08/26 22:02:38;;;;;;;36.60;4.40;;;14.30;99.90;;;;;;20986293;28;20483;-79
2021/08/26 22:12:39;;;;;;;7.10;4.20;;;14.40;99.90;;;;;;20967891;28;20505;-80
2021/08/26 22:22:40;;;;;;;;;;;14.40;99.90;;;;;;20985081;28;20037;-80
2021/08/26 22:32:41;;;;;;;6.10;4.33;;;14.10;99.90;;;;;;20982984;28;20340;-80
2021/08/26 22:42:42;;;;;;;5.40;3.10;;;14.00;99.90;;;;;;20986932;28;20039;-78
2021/08/26 22:52:46;;;;;;;4.27;3.20;;;14.00;99.90;;;;;;20998500;28;20433;-79
2021/08/26 23:02:47;;;;;;;7.70;3.10;;;14.10;99.90;;;;;;20978864;28;20050;-80
2021/08/26 23:12:48;;;;;;;4.47;3.07;;;14.00;99.90;;;;;;20957512;28;20036;-79
2021/08/26 23:22:49;;;;;;;6.33;3.10;;;13.70;99.90;;;;;;20993091;28;20063;-80
2021/08/26 23:32:50;;;;;;;7.57;3.83;;;13.30;99.90;;;;;;20971914;28;20024;-79
2021/08/26 23:42:50;;;;;;;7.07;3.47;;;13.00;99.90;;;;;;20972125;28;20039;-79
2021/08/26 23:52:51;;;;;;;7.97;3.97;;;13.00;99.90;;;;;;20952265;28;20209;-79
